createdAt,value
2023-04-01T00:04:35.970Z,11.04
2023-04-01T00:09:35.848Z,11.22
2023-04-01T00:14:35.754Z,11.24
2023-04-01T00:19:35.822Z,11.14
2023-04-01T00:24:35.871Z,11.14
2023-04-01T00:29:35.666Z,10.97
2023-04-01T00:34:35.540Z,10.96
2023-04-01T00:39:35.550Z,11.11
2023-04-01T00:44:35.488Z,11.02
2023-04-01T00:49:35.381Z,10.82
2023-04-01T00:54:35.322Z,11.11
2023-04-01T00:59:35.314Z,10.85
2023-04-01T01:04:35.362Z,11.10
2023-04-01T01:09:35.126Z,10.97
2023-04-01T01:14:35.178Z,11.10
2023-04-01T01:19:35.072Z,11.09
2023-04-01T01:24:35.070Z,11.03
2023-04-01T01:29:34.993Z,10.99
2023-04-01T01:34:34.958Z,11.14
2023-04-01T01:39:34.850Z,11.10
2023-04-01T01:44:34.837Z,11.02
2023-04-01T01:49:34.775Z,10.94
2023-04-01T01:54:34.690Z,10.91
2023-04-01T01:59:34.619Z,11.02
2023-04-01T02:04:34.564Z,10.99
2023-04-01T02:09:34.513Z,10.89
2023-04-01T02:14:35.566Z,10.96
2023-04-01T02:19:34.426Z,11.00
2023-04-01T02:24:34.438Z,10.91
2023-04-01T02:29:34.360Z,10.91
2023-04-01T02:34:34.294Z,10.97
2023-04-01T02:39:34.188Z,10.89
2023-04-01T02:44:34.173Z,10.92
2023-04-01T02:49:34.142Z,10.91
2023-04-01T02:54:34.053Z,10.76
2023-04-01T02:59:33.974Z,10.82
2023-04-01T03:04:33.946Z,10.88
2023-04-01T03:09:33.986Z,10.91
2023-04-01T03:14:33.827Z,10.97
2023-04-01T03:19:33.747Z,10.85
2023-04-01T03:24:33.794Z,10.97
2023-04-01T03:29:33.656Z,10.63
2023-04-01T03:34:33.685Z,10.78
2023-04-01T03:39:33.568Z,10.78
2023-04-01T03:44:33.488Z,10.89
2023-04-01T03:49:33.457Z,10.86
2023-04-01T03:54:33.380Z,10.84
2023-04-01T03:59:33.365Z,10.85
2023-04-01T04:04:33.341Z,10.85
2023-04-01T04:09:33.238Z,10.70
2023-04-01T04:14:33.194Z,10.84
2023-04-01T04:19:33.109Z,10.94
2023-04-01T04:24:42.879Z,10.74
2023-04-01T04:29:32.946Z,10.82
2023-04-01T04:34:33.447Z,10.88
2023-04-01T04:39:32.855Z,10.68
2023-04-01T04:44:32.802Z,10.96
2023-04-01T04:49:32.776Z,10.89
2023-04-01T04:54:32.745Z,10.97
2023-04-01T04:59:32.655Z,10.78
2023-04-01T05:04:32.584Z,11.07
2023-04-01T05:09:32.534Z,11.04
2023-04-01T05:14:32.614Z,10.92
2023-04-01T05:19:32.472Z,10.94
2023-04-01T05:24:32.403Z,10.89
2023-04-01T05:29:32.377Z,10.97
2023-04-01T05:34:32.229Z,11.00
2023-04-01T05:39:32.233Z,11.00
2023-04-01T05:44:32.180Z,11.14
2023-04-01T05:49:32.145Z,11.11
2023-04-01T05:54:32.074Z,11.10
2023-04-01T05:59:31.962Z,11.11
2023-04-01T06:04:32.029Z,11.09
2023-04-01T06:09:32.011Z,11.14
2023-04-01T06:14:31.820Z,11.09
2023-04-01T06:19:31.755Z,11.14
2023-04-01T06:24:32.669Z,11.11
2023-04-01T06:29:31.685Z,11.19
2023-04-01T06:34:31.682Z,11.10
2023-04-01T06:39:31.566Z,11.21
2023-04-01T06:44:31.517Z,11.22
2023-04-01T06:49:31.515Z,11.15
2023-04-01T06:54:31.379Z,11.18
2023-04-01T06:59:31.356Z,11.15
2023-04-01T07:04:31.340Z,11.24
2023-04-01T07:09:31.231Z,11.39
2023-04-01T07:14:31.192Z,11.46
2023-04-01T07:19:31.107Z,11.55
2023-04-01T07:24:31.074Z,11.58
2023-04-01T07:29:31.033Z,11.55
2023-04-01T07:34:30.969Z,11.67
2023-04-01T07:39:30.938Z,11.67
2023-04-01T07:44:30.960Z,11.75
2023-04-01T07:49:30.846Z,11.54
2023-04-01T07:54:30.745Z,11.49
2023-04-01T07:59:30.785Z,11.61
2023-04-01T08:04:30.767Z,11.65
2023-04-01T08:09:30.566Z,11.33
2023-04-01T08:14:30.565Z,11.55
2023-04-01T08:19:30.514Z,11.75
2023-04-01T08:24:40.571Z,11.76
2023-04-01T08:29:31.400Z,11.78
2023-04-01T08:34:30.336Z,11.65
2023-04-01T08:39:30.243Z,11.73
2023-04-01T08:44:30.210Z,11.60
2023-04-01T08:49:30.128Z,11.58
2023-04-01T08:54:30.102Z,11.80
2023-04-01T08:59:30.127Z,12.07
2023-04-01T09:04:30.093Z,11.82
2023-04-01T09:09:29.924Z,11.69
2023-04-01T09:14:29.865Z,11.65
2023-04-01T09:19:29.827Z,11.88
2023-04-01T09:24:29.767Z,12.01
2023-04-01T09:29:29.728Z,11.98
2023-04-01T09:34:29.668Z,11.96
2023-04-01T09:39:29.634Z,11.58
2023-04-01T09:44:29.544Z,11.88
2023-04-01T09:49:29.524Z,11.85
2023-04-01T09:54:29.438Z,12.09
2023-04-01T09:59:29.401Z,12.23
2023-04-01T10:04:29.401Z,12.53
2023-04-01T10:09:29.296Z,12.47
2023-04-01T10:14:29.212Z,12.74
2023-04-01T10:19:29.155Z,12.53
2023-04-01T10:24:29.096Z,12.62
2023-04-01T10:29:29.154Z,12.65
2023-04-01T10:34:29.088Z,12.19
2023-04-01T10:39:29.017Z,12.62
2023-04-01T10:44:28.940Z,12.74
2023-04-01T10:49:28.916Z,12.64
2023-04-01T10:54:28.798Z,12.52
2023-04-01T10:59:28.713Z,12.41
2023-04-01T11:04:28.759Z,12.71
2023-04-01T11:09:28.652Z,12.68
2023-04-01T11:14:28.704Z,12.56
2023-04-01T11:19:28.619Z,12.50
2023-04-01T11:24:28.474Z,12.42
2023-04-01T11:29:28.409Z,12.35
2023-04-01T11:34:28.388Z,12.64
2023-04-01T11:39:28.289Z,12.77
2023-04-01T11:44:28.293Z,12.59
2023-04-01T11:49:28.384Z,12.24
2023-04-01T11:54:28.215Z,12.42
2023-04-01T11:59:28.137Z,12.35
2023-04-01T12:04:28.147Z,12.37
2023-04-01T12:09:28.024Z,12.47
2023-04-01T12:14:27.957Z,12.53
2023-04-01T12:19:27.890Z,12.34
2023-04-01T12:24:31.244Z,12.34
2023-04-01T12:29:27.901Z,12.20
2023-04-01T12:34:27.832Z,12.37
2023-04-01T12:39:27.811Z,12.67
2023-04-01T12:44:27.573Z,12.53
2023-04-01T12:49:27.547Z,12.53
2023-04-01T12:54:27.577Z,12.74
2023-04-01T12:59:27.533Z,12.52
2023-04-01T13:04:27.574Z,12.62
2023-04-01T13:09:27.564Z,12.86
2023-04-01T13:14:31.760Z,12.74
2023-04-01T13:19:27.229Z,13.10
2023-04-01T13:24:27.190Z,13.12
2023-04-01T13:29:27.113Z,13.03
2023-04-01T13:34:27.069Z,12.96
2023-04-01T13:39:36.371Z,12.71
2023-04-01T13:44:26.925Z,12.47
2023-04-01T13:49:26.905Z,12.62
2023-04-01T13:54:26.856Z,12.42
2023-04-01T13:59:26.788Z,12.45
2023-04-01T14:04:26.748Z,12.32
2023-04-01T14:09:26.684Z,12.39
2023-04-01T14:14:26.612Z,12.39
2023-04-01T14:19:26.552Z,12.24
2023-04-01T14:24:26.490Z,12.59
2023-04-01T14:29:26.506Z,12.53
2023-04-01T14:34:26.402Z,12.37
2023-04-01T14:39:26.332Z,12.21
2023-04-01T14:44:26.341Z,12.20
2023-04-01T14:49:26.282Z,12.09
2023-04-01T14:54:26.154Z,12.29
2023-04-01T14:59:26.155Z,12.23
2023-04-01T15:04:26.141Z,12.10
2023-04-01T15:09:26.032Z,12.16
2023-04-01T15:14:25.972Z,12.14
2023-04-01T15:19:25.895Z,12.12
2023-04-01T15:24:25.961Z,12.32
2023-04-01T15:29:25.889Z,12.01
2023-04-01T15:34:25.853Z,12.17
2023-04-01T15:39:25.785Z,12.56
2023-04-01T15:44:25.659Z,12.68
2023-04-01T15:49:25.641Z,12.56
2023-04-01T15:54:26.015Z,12.31
2023-04-01T15:59:25.505Z,12.37
2023-04-01T16:04:25.425Z,12.38
2023-04-01T16:09:25.404Z,12.57
2023-04-01T16:14:25.365Z,12.62
2023-04-01T16:19:25.979Z,12.17
2023-04-01T16:24:25.241Z,12.23
2023-04-01T16:29:25.233Z,12.20
2023-04-01T16:34:25.115Z,12.17
2023-04-01T16:39:25.077Z,12.27
2023-04-01T16:44:25.079Z,11.99
2023-04-01T16:49:24.973Z,12.16
2023-04-01T16:54:24.932Z,12.04
2023-04-01T16:59:24.864Z,12.17
2023-04-01T17:04:24.817Z,12.19
2023-04-01T17:09:24.788Z,12.29
2023-04-01T17:14:24.761Z,12.17
2023-04-01T17:19:24.683Z,12.09
2023-04-01T17:24:24.601Z,12.12
2023-04-01T17:29:24.545Z,11.98
2023-04-01T17:34:24.548Z,11.94
2023-04-01T17:39:24.441Z,11.78
2023-04-01T17:44:24.382Z,12.05
2023-04-01T17:49:24.318Z,12.19
2023-04-01T17:54:24.300Z,12.16
2023-04-01T17:59:24.264Z,12.19
2023-04-01T18:04:24.210Z,12.19
2023-04-01T18:09:24.223Z,12.13
2023-04-01T18:14:24.115Z,12.04
2023-04-01T18:19:24.136Z,12.14
2023-04-01T18:24:23.971Z,12.05
2023-04-01T18:29:23.882Z,11.72
2023-04-01T18:34:23.868Z,11.73
2023-04-01T18:39:25.798Z,11.86
2023-04-01T18:44:23.776Z,11.96
2023-04-01T18:49:23.714Z,11.95
2023-04-01T18:54:23.694Z,11.78
2023-04-01T18:59:23.605Z,11.69
2023-04-01T19:04:23.493Z,11.75
2023-04-01T19:09:23.547Z,11.82
2023-04-01T19:14:23.430Z,11.96
2023-04-01T19:19:23.378Z,11.95
2023-04-01T19:24:23.329Z,12.02
2023-04-01T19:29:23.263Z,11.94
2023-04-01T19:34:23.184Z,11.91
2023-04-01T19:39:23.139Z,12.04
2023-04-01T19:44:23.219Z,12.09
2023-04-01T19:49:23.043Z,12.01
2023-04-01T19:54:23.006Z,11.86
2023-04-01T19:59:22.939Z,11.60
2023-04-01T20:04:22.973Z,11.57
2023-04-01T20:09:22.818Z,11.44
2023-04-01T20:14:22.786Z,11.52
2023-04-01T20:19:22.748Z,11.52
2023-04-01T20:24:22.674Z,11.47
2023-04-01T20:29:22.627Z,11.17
2023-04-01T20:34:22.577Z,11.25
2023-04-01T20:39:22.493Z,10.88
2023-04-01T20:44:22.455Z,11.06
2023-04-01T20:49:22.443Z,10.84
2023-04-01T20:54:22.338Z,10.76
2023-04-01T20:59:22.352Z,10.68
2023-04-01T21:04:22.240Z,10.84
2023-04-01T21:09:22.196Z,10.85
2023-04-01T21:14:22.178Z,10.91
2023-04-01T21:19:22.150Z,10.76
2023-04-01T21:24:21.992Z,10.70
2023-04-01T21:29:21.946Z,10.61
2023-04-01T21:34:21.880Z,10.68
2023-04-01T21:39:21.861Z,10.47
2023-04-01T21:44:21.807Z,10.41
2023-04-01T21:49:21.891Z,10.44
2023-04-01T21:54:21.784Z,10.42
2023-04-01T21:59:21.651Z,10.29
2023-04-01T22:04:21.615Z,10.17
2023-04-01T22:09:21.583Z,10.17
2023-04-01T22:14:21.518Z,10.12
2023-04-01T22:19:21.426Z,9.81
2023-04-01T22:24:21.368Z,10.09
2023-04-01T22:29:21.312Z,9.87
2023-04-01T22:34:21.275Z,9.53
2023-04-01T22:39:21.185Z,9.50
2023-04-01T22:44:21.169Z,9.58
2023-04-01T22:49:21.138Z,9.42
2023-04-01T22:54:21.080Z,9.64
2023-04-01T22:59:20.990Z,9.72
2023-04-01T23:04:20.968Z,9.65
2023-04-01T23:09:20.865Z,9.66
2023-04-01T23:14:20.929Z,9.38
2023-04-01T23:19:20.837Z,9.40
2023-04-01T23:24:20.739Z,8.99
2023-04-01T23:29:20.656Z,8.98
2023-04-01T23:34:20.614Z,8.98
2023-04-01T23:39:20.529Z,8.73
2023-04-01T23:44:20.493Z,9.20
2023-04-01T23:49:20.420Z,9.11
2023-04-01T23:54:20.480Z,9.17
2023-04-01T23:59:20.392Z,9.13
